createdAt,value
2023-02-19T00:03:07.562Z,0
2023-02-19T00:08:07.587Z,0
2023-02-19T00:13:07.519Z,0
2023-02-19T00:18:07.551Z,0
2023-02-19T00:23:07.570Z,0
2023-02-19T00:28:07.546Z,0
2023-02-19T00:33:07.698Z,0
2023-02-19T00:38:07.595Z,0
2023-02-19T00:43:07.531Z,0
2023-02-19T00:48:07.619Z,0
2023-02-19T00:53:07.549Z,0
2023-02-19T00:58:07.622Z,0
2023-02-19T01:03:07.557Z,0
2023-02-19T01:08:07.569Z,0
2023-02-19T01:13:07.547Z,0
2023-02-19T01:18:23.136Z,0
2023-02-19T01:23:07.985Z,0
2023-02-19T01:28:07.574Z,0
2023-02-19T01:33:07.569Z,0
2023-02-19T01:38:07.633Z,0
2023-02-19T01:43:07.570Z,0
2023-02-19T01:48:07.552Z,0
2023-02-19T01:53:07.582Z,0
2023-02-19T01:58:07.616Z,0
2023-02-19T02:03:07.985Z,0
2023-02-19T02:08:09.109Z,0
2023-02-19T02:13:07.624Z,0
2023-02-19T02:18:07.662Z,0
2023-02-19T02:23:07.530Z,0
2023-02-19T02:28:07.522Z,0
2023-02-19T02:33:07.571Z,0
2023-02-19T02:38:07.527Z,0
2023-02-19T02:43:07.552Z,0
2023-02-19T02:48:07.591Z,0
2023-02-19T02:53:07.560Z,0
2023-02-19T02:58:07.600Z,0
2023-02-19T03:03:07.568Z,0
2023-02-19T03:13:07.533Z,0
2023-02-19T03:18:08.057Z,0
2023-02-19T03:23:07.528Z,0
2023-02-19T03:28:08.071Z,0
2023-02-19T03:33:07.518Z,0
2023-02-19T03:38:07.499Z,0
2023-02-19T03:43:07.578Z,0
2023-02-19T03:48:07.536Z,0
2023-02-19T03:53:07.535Z,0
2023-02-19T03:58:07.639Z,0
2023-02-19T04:03:07.549Z,0
2023-02-19T04:08:07.592Z,0
2023-02-19T04:13:07.564Z,0
2023-02-19T04:18:07.582Z,0
2023-02-19T04:23:07.539Z,0
2023-02-19T04:28:07.552Z,0
2023-02-19T04:33:07.584Z,0
2023-02-19T04:38:07.585Z,0
2023-02-19T04:43:07.610Z,0
2023-02-19T04:48:07.589Z,0
2023-02-19T04:53:07.574Z,0
2023-02-19T04:58:07.606Z,0
2023-02-19T05:03:07.557Z,0
2023-02-19T05:08:07.559Z,0
2023-02-19T05:13:07.569Z,0
2023-02-19T05:18:07.529Z,0
2023-02-19T05:23:07.572Z,0
2023-02-19T05:28:07.607Z,0
2023-02-19T05:33:07.562Z,0
2023-02-19T05:38:07.599Z,0
2023-02-19T05:43:07.584Z,0
2023-02-19T05:48:07.622Z,0
2023-02-19T05:53:07.555Z,0
2023-02-19T05:58:07.665Z,0
2023-02-19T06:03:07.581Z,0
2023-02-19T06:08:07.621Z,0
2023-02-19T06:13:07.619Z,256
2023-02-19T06:18:07.555Z,258
2023-02-19T06:23:07.623Z,256
2023-02-19T06:28:07.610Z,259
2023-02-19T06:33:07.560Z,259
2023-02-19T06:38:07.575Z,269
2023-02-19T06:43:07.551Z,273
2023-02-19T06:48:07.558Z,286
2023-02-19T06:53:07.629Z,279
2023-02-19T06:58:07.586Z,283
2023-02-19T07:03:08.206Z,281
2023-02-19T07:08:07.813Z,299
2023-02-19T07:13:07.809Z,288
2023-02-19T07:18:07.695Z,302
2023-02-19T07:23:07.555Z,302
2023-02-19T07:28:09.172Z,286
2023-02-19T07:33:10.344Z,302
2023-02-19T07:38:07.680Z,374
2023-02-19T07:43:07.649Z,310
2023-02-19T07:48:07.543Z,493
2023-02-19T07:53:07.642Z,401
2023-02-19T07:58:07.871Z,477
2023-02-19T08:03:08.032Z,398
2023-02-19T08:08:07.568Z,406
2023-02-19T08:13:07.591Z,446
2023-02-19T08:18:07.628Z,516
2023-02-19T08:23:07.649Z,475
2023-02-19T08:28:07.612Z,603
2023-02-19T08:33:07.989Z,603
2023-02-19T08:38:07.582Z,587
2023-02-19T08:43:07.603Z,625
2023-02-19T08:48:07.620Z,463
2023-02-19T08:53:07.644Z,394
2023-02-19T08:58:07.706Z,727
2023-02-19T09:03:07.622Z,500
2023-02-19T09:08:07.656Z,783
2023-02-19T09:13:07.611Z,573
2023-02-19T09:18:07.579Z,600
2023-02-19T09:23:07.590Z,553
2023-02-19T09:28:07.641Z,477
2023-02-19T09:33:07.587Z,459
2023-02-19T09:38:07.616Z,447
2023-02-19T09:48:07.715Z,412
2023-02-19T09:53:07.668Z,468
2023-02-19T09:58:07.593Z,568
2023-02-19T10:03:07.613Z,736
2023-02-19T10:08:07.652Z,846
2023-02-19T10:13:07.620Z,607
2023-02-19T10:18:09.464Z,514
2023-02-19T10:23:07.670Z,430
2023-02-19T10:28:08.127Z,496
2023-02-19T10:33:08.115Z,436
2023-02-19T10:38:07.636Z,479
2023-02-19T10:43:07.639Z,434
2023-02-19T10:48:07.621Z,415
2023-02-19T10:53:07.607Z,372
2023-02-19T10:58:07.638Z,440
2023-02-19T11:03:07.632Z,502
2023-02-19T11:08:07.651Z,458
2023-02-19T11:13:07.680Z,457
2023-02-19T11:18:07.639Z,425
2023-02-19T11:23:07.712Z,429
2023-02-19T11:28:07.676Z,494
2023-02-19T11:33:07.671Z,403
2023-02-19T11:38:07.650Z,458
2023-02-19T11:43:07.631Z,425
2023-02-19T11:48:07.643Z,560
2023-02-19T11:53:07.589Z,418
2023-02-19T11:58:07.813Z,587
2023-02-19T12:03:07.683Z,644
2023-02-19T12:08:07.633Z,459
2023-02-19T12:13:07.627Z,882
2023-02-19T12:18:07.629Z,898
2023-02-19T12:23:07.692Z,1049
2023-02-19T12:28:07.679Z,956
2023-02-19T12:33:07.634Z,876
2023-02-19T12:38:07.732Z,1360
2023-02-19T12:43:07.629Z,1093
2023-02-19T12:48:07.736Z,736
2023-02-19T12:53:07.642Z,638
2023-02-19T12:58:07.672Z,555
2023-02-19T13:03:07.662Z,651
2023-02-19T13:08:07.671Z,838
2023-02-19T13:13:07.664Z,463
2023-02-19T13:18:07.730Z,380
2023-02-19T13:23:07.631Z,465
2023-02-19T13:28:07.656Z,528
2023-02-19T13:33:07.793Z,454
2023-02-19T13:38:07.700Z,414
2023-02-19T13:43:07.679Z,500
2023-02-19T13:48:07.674Z,752
2023-02-19T13:53:07.745Z,722
2023-02-19T13:58:07.679Z,611
2023-02-19T14:03:07.688Z,568
2023-02-19T14:08:07.703Z,504
2023-02-19T14:13:07.704Z,348
2023-02-19T14:18:07.656Z,302
2023-02-19T14:23:07.713Z,298
2023-02-19T14:28:07.719Z,304
2023-02-19T14:33:11.246Z,291
2023-02-19T14:38:07.702Z,353
2023-02-19T14:43:07.696Z,390
2023-02-19T14:48:07.732Z,434
2023-02-19T14:53:07.656Z,501
2023-02-19T14:58:07.751Z,543
2023-02-19T15:03:07.810Z,558
2023-02-19T15:08:07.661Z,573
2023-02-19T15:13:07.691Z,667
2023-02-19T15:18:07.739Z,518
2023-02-19T15:23:07.661Z,451
2023-02-19T15:28:07.673Z,375
2023-02-19T15:33:07.674Z,450
2023-02-19T15:38:07.717Z,369
2023-02-19T15:43:07.652Z,361
2023-02-19T15:48:07.744Z,384
2023-02-19T15:53:07.705Z,348
2023-02-19T15:58:07.682Z,329
2023-02-19T16:03:07.695Z,310
2023-02-19T16:08:07.711Z,294
2023-02-19T16:13:07.721Z,293
2023-02-19T16:18:07.740Z,293
2023-02-19T16:23:07.649Z,283
2023-02-19T16:28:07.664Z,281
2023-02-19T16:33:07.755Z,271
2023-02-19T16:38:07.705Z,261
2023-02-19T16:43:07.670Z,258
2023-02-19T16:48:07.638Z,258
2023-02-19T16:53:07.709Z,0
2023-02-19T16:58:07.727Z,0
2023-02-19T17:03:07.671Z,0
2023-02-19T17:08:08.192Z,0
2023-02-19T17:13:07.701Z,0
2023-02-19T17:18:07.679Z,0
2023-02-19T17:23:07.708Z,0
2023-02-19T17:28:07.673Z,0
2023-02-19T17:33:07.671Z,0
2023-02-19T17:38:07.685Z,0
2023-02-19T17:43:07.695Z,0
2023-02-19T17:48:07.665Z,0
2023-02-19T17:53:07.670Z,0
2023-02-19T17:58:07.733Z,0
2023-02-19T18:03:07.691Z,0
2023-02-19T18:08:07.711Z,0
2023-02-19T18:13:08.740Z,0
2023-02-19T18:18:07.777Z,0
2023-02-19T18:23:07.715Z,0
2023-02-19T18:28:07.735Z,0
2023-02-19T18:33:07.744Z,0
2023-02-19T18:38:07.695Z,0
2023-02-19T18:43:07.734Z,0
2023-02-19T18:48:07.756Z,0
2023-02-19T18:53:07.655Z,0
2023-02-19T18:58:07.992Z,0
2023-02-19T19:03:07.721Z,0
2023-02-19T19:08:07.724Z,0
2023-02-19T19:13:07.727Z,0
2023-02-19T19:18:07.760Z,0
2023-02-19T19:23:07.761Z,0
2023-02-19T19:28:07.676Z,0
2023-02-19T19:33:07.669Z,0
2023-02-19T19:38:07.736Z,0
2023-02-19T19:43:07.665Z,0
2023-02-19T19:48:07.688Z,0
2023-02-19T19:53:07.736Z,0
2023-02-19T19:58:07.709Z,0
2023-02-19T20:03:07.716Z,0
2023-02-19T20:08:07.768Z,0
2023-02-19T20:13:07.697Z,0
2023-02-19T20:18:07.703Z,0
2023-02-19T20:23:07.743Z,0
2023-02-19T20:28:07.716Z,0
2023-02-19T20:33:07.707Z,0
2023-02-19T20:38:07.699Z,0
2023-02-19T20:43:07.701Z,0
2023-02-19T20:48:07.691Z,0
2023-02-19T20:53:07.814Z,0
2023-02-19T20:58:07.745Z,0
2023-02-19T21:03:07.896Z,0
2023-02-19T21:08:07.754Z,0
2023-02-19T21:13:07.716Z,0
2023-02-19T21:18:07.736Z,0
2023-02-19T21:23:07.702Z,0
2023-02-19T22:08:17.338Z,0
